Aviation Digital Data Service (ADDS)

Output produced by METARs form (0012 UTC 23 March 2019)
found at http://www.aviationweather.gov/metar/data/
 
Forecast for: KJAX (JACKSONVILLE , FL, US)
Text: KJAX 222320Z 2300/2324 27011KT P6SM SKC
Forecast period: 0000 to 0300 UTC 23 March 2019
Forecast type: FROM: standard forecast or significant change
Winds: from the W (270 degrees) at 13 MPH (11 knots; 5.7 m/s)
Visibility: 6 or more miles 10+ km)
Clouds: clear skies
Weather: no significant weather forecast for this period
Text: FM230300 VRB03KT P6SM SKC
Forecast period: 0300 to 1500 UTC 23 March 2019
Forecast type: FROM: standard forecast or significant change
Winds: variable direction winds at 3 MPH (3 knots; 1.5 m/s)
Visibility: 6 or more miles 10+ km)
Clouds: clear skies
Weather: no significant weather forecast for this period
Text: FM231500 06008KT P6SM SKC
Forecast period: 1500 UTC 23 March 2019 to 0000 UTC 24 March 2019
Forecast type: FROM: standard forecast or significant change
Winds: from the ENE (60 degrees) at 9 MPH (8 knots; 4.1 m/s)
Visibility: 6 or more miles 10+ km)
Clouds: clear skies
Weather: no significant weather forecast for this period